createdAt,value
2022-08-07T00:01:12.614Z,98317.44
2022-08-07T00:03:55.129Z,98320.13
2022-08-07T00:06:29.489Z,98321.47
2022-08-07T00:09:16.949Z,98322.91
2022-08-07T00:11:55.910Z,98320.16
2022-08-07T00:14:30.590Z,98326.25
2022-08-07T00:16:59.057Z,98316.63
2022-08-07T00:19:33.985Z,98317.81
2022-08-07T00:22:24.491Z,98329.31
2022-08-07T00:25:04.899Z,98323.31
2022-08-07T00:27:51.837Z,98318.66
2022-08-07T00:30:26.556Z,98325.31
2022-08-07T00:32:56.658Z,98321.69
2022-08-07T00:35:27.319Z,98333.22
2022-08-07T00:37:57.825Z,98331.66
2022-08-07T00:40:36.978Z,98332.25
2022-08-07T00:43:10.421Z,98332.72
2022-08-07T00:45:38.603Z,98335.44
2022-08-07T00:48:09.681Z,98329.00
2022-08-07T00:50:46.221Z,98327.72
2022-08-07T00:53:19.555Z,98331.59
2022-08-07T00:56:02.551Z,98330.53
2022-08-07T00:58:31.516Z,98341.28
2022-08-07T01:00:59.135Z,98345.75
2022-08-07T01:03:54.847Z,98347.09
2022-08-07T01:06:15.933Z,98352.84
2022-08-07T01:08:53.626Z,98348.94
2022-08-07T01:12:10.212Z,98350.28
2022-08-07T01:14:10.122Z,98345.34
2022-08-07T01:16:38.092Z,98350.28
2022-08-07T01:19:18.375Z,98353.47
2022-08-07T01:21:49.859Z,98351.41
2022-08-07T01:24:23.352Z,98348.31
2022-08-07T01:26:53.716Z,98342.09
2022-08-07T01:29:27.654Z,98351.75
2022-08-07T01:31:59.840Z,98351.25
2022-08-07T01:34:31.471Z,98344.00
2022-08-07T01:37:03.379Z,98349.00
2022-08-07T01:39:40.482Z,98350.91
2022-08-07T01:42:37.696Z,98350.47
2022-08-07T01:45:18.076Z,98341.09
2022-08-07T01:48:18.623Z,98351.53
2022-08-07T01:50:42.961Z,98349.41
2022-08-07T01:53:20.786Z,98341.84
2022-08-07T01:55:51.589Z,98342.13
2022-08-07T01:58:28.856Z,98353.72
2022-08-07T02:01:25.058Z,98347.25
2022-08-07T02:03:56.456Z,98348.38
2022-08-07T02:06:31.679Z,98355.19
2022-08-07T02:09:09.322Z,98352.88
2022-08-07T02:12:03.360Z,98356.59
2022-08-07T02:14:40.155Z,98358.16
2022-08-07T02:17:16.669Z,98359.22
2022-08-07T02:20:04.526Z,98357.16
2022-08-07T02:22:38.375Z,98354.84
2022-08-07T02:25:13.822Z,98358.22
2022-08-07T02:27:51.220Z,98354.34
2022-08-07T02:30:21.295Z,98361.88
2022-08-07T02:33:07.215Z,98358.78
2022-08-07T02:36:30.420Z,98363.22
2022-08-07T02:38:38.334Z,98359.88
2022-08-07T02:41:08.113Z,98364.88
2022-08-07T02:43:41.090Z,98361.25
2022-08-07T02:46:12.012Z,98365.97
2022-08-07T02:48:47.188Z,98370.13
2022-08-07T02:51:42.107Z,98368.88
2022-08-07T02:54:13.163Z,98372.81
2022-08-07T02:56:46.607Z,98383.25
2022-08-07T02:59:19.795Z,98384.28
2022-08-07T03:01:55.506Z,98384.56
2022-08-07T03:04:25.645Z,98389.00
2022-08-07T03:06:54.372Z,98394.78
2022-08-07T03:09:43.773Z,98388.50
2022-08-07T03:12:21.687Z,98392.16
2022-08-07T03:14:52.750Z,98389.81
2022-08-07T03:17:25.270Z,98388.75
2022-08-07T03:19:55.538Z,98398.94
2022-08-07T03:22:30.186Z,98389.81
2022-08-07T03:24:59.965Z,98391.72
2022-08-07T03:27:59.167Z,98389.38
2022-08-07T03:30:20.578Z,98393.53
2022-08-07T03:32:58.872Z,98392.50
2022-08-07T03:35:44.099Z,98401.59
2022-08-07T03:38:29.375Z,98401.59
2022-08-07T03:41:03.385Z,98395.03
2022-08-07T03:43:35.974Z,98390.84
2022-08-07T03:46:18.159Z,98395.75
2022-08-07T03:49:02.703Z,98398.03
2022-08-07T03:51:47.107Z,98391.47
2022-08-07T03:54:36.324Z,98406.03
2022-08-07T03:57:07.628Z,98405.94
2022-08-07T03:59:46.781Z,98407.50
2022-08-07T04:02:28.798Z,98400.44
2022-08-07T04:04:56.994Z,98409.53
2022-08-07T04:07:25.395Z,98412.28
2022-08-07T04:10:04.785Z,98416.88
2022-08-07T04:12:35.140Z,98407.66
2022-08-07T04:15:05.966Z,98404.16
2022-08-07T04:18:57.256Z,98406.63
2022-08-07T04:20:26.729Z,98416.53
2022-08-07T04:23:01.636Z,98410.13
2022-08-07T04:25:35.930Z,98410.81
2022-08-07T04:28:08.672Z,98408.91
2022-08-07T04:30:43.970Z,98412.22
2022-08-07T04:33:27.988Z,98408.53
2022-08-07T04:35:56.541Z,98412.44
2022-08-07T04:38:28.673Z,98414.16
2022-08-07T04:40:57.421Z,98417.94
2022-08-07T04:44:12.844Z,98422.84
2022-08-07T04:46:34.731Z,98419.38
2022-08-07T04:49:17.875Z,98420.00
2022-08-07T04:52:00.493Z,98424.44
2022-08-07T04:54:34.088Z,98428.63
2022-08-07T04:58:15.667Z,98430.41
2022-08-07T05:00:09.665Z,98424.72
2022-08-07T05:02:53.130Z,98419.56
2022-08-07T05:05:53.333Z,98426.78
2022-08-07T05:08:59.607Z,98419.94
2022-08-07T05:11:19.337Z,98418.53
2022-08-07T05:14:54.548Z,98418.84
2022-08-07T05:16:52.999Z,98418.72
2022-08-07T05:19:32.604Z,98424.34
2022-08-07T05:22:13.033Z,98421.91
2022-08-07T05:24:57.252Z,98432.03
2022-08-07T05:28:03.202Z,98432.34
2022-08-07T05:30:30.087Z,98435.97
2022-08-07T05:33:02.499Z,98435.34
2022-08-07T05:35:42.173Z,98440.34
2022-08-07T05:38:13.120Z,98449.09
2022-08-07T05:41:01.926Z,98451.81
2022-08-07T05:43:50.014Z,98444.00
2022-08-07T05:46:29.527Z,98440.97
2022-08-07T05:48:59.410Z,98439.31
2022-08-07T05:51:31.767Z,98431.16
2022-08-07T05:54:12.183Z,98445.53
2022-08-07T05:56:51.398Z,98441.66
2022-08-07T05:59:21.235Z,98442.84
2022-08-07T06:01:54.643Z,98454.44
2022-08-07T06:04:26.275Z,98448.75
2022-08-07T06:07:04.428Z,98453.31
2022-08-07T06:10:03.721Z,98458.41
2022-08-07T06:12:31.848Z,98448.47
2022-08-07T06:15:05.506Z,98452.63
2022-08-07T06:17:37.860Z,98457.59
2022-08-07T06:20:12.692Z,98451.63
2022-08-07T06:23:02.058Z,98455.03
2022-08-07T06:25:54.504Z,98449.66
2022-08-07T06:28:27.476Z,98445.81
2022-08-07T06:30:58.109Z,98445.13
2022-08-07T06:33:27.462Z,98439.09
2022-08-07T06:36:12.246Z,98439.13
2022-08-07T06:38:59.352Z,98441.78
2022-08-07T06:42:01.094Z,98450.59
2022-08-07T06:45:01.083Z,98437.31
2022-08-07T06:47:28.727Z,98440.00
2022-08-07T06:50:18.986Z,98429.69
2022-08-07T06:52:53.227Z,98433.72
2022-08-07T06:55:53.628Z,98438.22
2022-08-07T06:58:21.519Z,98434.47
2022-08-07T07:00:58.084Z,98433.97
2022-08-07T07:03:47.523Z,98431.38
2022-08-07T07:06:14.006Z,98446.97
2022-08-07T07:08:51.318Z,98439.75
2022-08-07T07:12:08.553Z,98443.97
2022-08-07T07:14:08.573Z,98445.03
2022-08-07T07:16:49.470Z,98439.84
2022-08-07T07:19:56.403Z,98432.16
2022-08-07T07:22:34.174Z,98433.94
2022-08-07T07:25:14.231Z,98434.50
2022-08-07T07:27:56.346Z,98436.84
2022-08-07T07:30:39.756Z,98432.94
2022-08-07T07:33:11.880Z,98437.28
2022-08-07T07:35:44.112Z,98425.44
2022-08-07T07:38:31.882Z,98420.97
2022-08-07T07:41:03.715Z,98434.69
2022-08-07T07:43:48.037Z,98427.59
2022-08-07T07:46:36.532Z,98432.06
2022-08-07T07:50:36.410Z,98421.25
2022-08-07T07:52:03.867Z,98425.13
2022-08-07T07:54:33.982Z,98426.41
2022-08-07T07:57:05.421Z,98424.50
2022-08-07T07:59:52.732Z,98419.19
2022-08-07T08:02:22.667Z,98424.19
2022-08-07T08:05:04.777Z,98423.63
2022-08-07T08:07:35.939Z,98427.91
2022-08-07T08:10:14.817Z,98427.50
2022-08-07T08:13:00.573Z,98416.22
2022-08-07T08:15:58.117Z,98427.63
2022-08-07T08:18:24.937Z,98434.53
2022-08-07T08:20:54.069Z,98420.25
2022-08-07T08:23:41.839Z,98418.75
2022-08-07T08:26:37.042Z,98424.47
2022-08-07T08:29:05.438Z,98422.47
2022-08-07T08:31:58.998Z,98426.22
2022-08-07T08:34:35.715Z,98428.56
2022-08-07T08:37:09.993Z,98422.03
2022-08-07T08:39:58.709Z,98419.59
2022-08-07T08:42:31.927Z,98421.00
2022-08-07T08:45:13.206Z,98425.66
2022-08-07T08:47:55.399Z,98417.91
2022-08-07T08:50:34.873Z,98410.31
2022-08-07T08:53:19.736Z,98418.78
2022-08-07T08:55:54.830Z,98416.38
2022-08-07T08:58:36.202Z,98410.84
2022-08-07T09:01:14.633Z,98415.53
2022-08-07T09:03:55.206Z,98414.03
2022-08-07T09:06:37.471Z,98414.72
2022-08-07T09:09:29.776Z,98411.31
2022-08-07T09:12:30.390Z,98410.84
2022-08-07T09:16:21.904Z,98406.50
2022-08-07T09:18:11.525Z,98400.78
2022-08-07T09:20:58.080Z,98402.69
2022-08-07T09:24:53.999Z,98404.59
2022-08-07T09:26:31.525Z,98405.41
2022-08-07T09:30:01.099Z,98410.03
2022-08-07T09:31:59.423Z,98398.91
2022-08-07T09:34:32.109Z,98396.41
2022-08-07T09:37:06.299Z,98392.28
2022-08-07T09:39:54.696Z,98404.47
2022-08-07T09:42:46.750Z,98390.59
2022-08-07T09:47:26.353Z,98391.88
2022-08-07T09:48:29.817Z,98400.03
2022-08-07T09:52:09.952Z,98397.31
2022-08-07T09:54:06.025Z,98387.22
2022-08-07T09:57:06.294Z,98391.97
2022-08-07T10:00:01.473Z,98387.03
2022-08-07T10:04:06.580Z,98378.78
2022-08-07T10:06:31.615Z,98387.25
2022-08-07T10:09:23.777Z,98377.34
2022-08-07T10:12:21.740Z,98375.81
2022-08-07T10:15:44.113Z,98376.56
2022-08-07T10:18:35.387Z,98368.78
2022-08-07T10:21:51.142Z,98375.00
2022-08-07T10:24:45.778Z,98375.69
2022-08-07T10:27:30.152Z,98369.19
2022-08-07T10:30:16.914Z,98379.75
2022-08-07T10:33:00.263Z,98373.28
2022-08-07T10:35:55.636Z,98377.34
2022-08-07T10:38:49.966Z,98366.50
2022-08-07T10:41:52.146Z,98374.88
2022-08-07T10:44:37.579Z,98368.94
2022-08-07T10:47:18.870Z,98364.22
2022-08-07T10:50:02.561Z,98370.03
2022-08-07T10:52:40.125Z,98360.13
2022-08-07T10:55:21.203Z,98357.91
2022-08-07T10:58:15.752Z,98351.16
2022-08-07T11:00:56.099Z,98342.44
2022-08-07T11:03:37.893Z,98344.31
2022-08-07T11:06:22.014Z,98341.16
2022-08-07T11:08:58.671Z,98338.19
2022-08-07T11:11:36.020Z,98333.13
2022-08-07T11:14:44.523Z,98339.69
2022-08-07T11:17:08.977Z,98336.31
2022-08-07T11:19:45.582Z,98332.13
2022-08-07T11:22:32.258Z,98316.13
2022-08-07T11:25:13.273Z,98315.00
2022-08-07T11:28:01.376Z,98317.72
2022-08-07T11:30:42.781Z,98316.16
2022-08-07T11:33:59.450Z,98323.28
2022-08-07T11:36:20.475Z,98321.53
2022-08-07T11:39:02.540Z,98306.78
2022-08-07T11:42:01.632Z,98299.59
2022-08-07T11:44:40.147Z,98299.00
2022-08-07T11:47:38.651Z,98303.38
2022-08-07T11:50:44.493Z,98301.31
2022-08-07T11:53:37.069Z,98295.41
2022-08-07T11:56:26.733Z,98305.34
2022-08-07T12:00:12.602Z,98306.09
2022-08-07T12:02:17.676Z,98307.09
2022-08-07T12:05:03.219Z,98297.91
2022-08-07T12:07:41.150Z,98301.81
2022-08-07T12:10:14.883Z,98287.44
2022-08-07T12:12:47.863Z,98295.53
2022-08-07T12:15:35.657Z,98300.47
2022-08-07T12:18:16.043Z,98294.66
2022-08-07T12:21:02.082Z,98291.44
2022-08-07T12:24:05.311Z,98298.88
2022-08-07T12:26:40.562Z,98290.53
2022-08-07T12:29:37.199Z,98294.63
2022-08-07T12:32:14.678Z,98298.09
2022-08-07T12:34:49.204Z,98310.47
2022-08-07T12:37:23.562Z,98320.63
2022-08-07T12:39:58.719Z,98322.84
2022-08-07T12:42:28.626Z,98319.75
2022-08-07T12:45:06.478Z,98322.06
2022-08-07T12:47:43.930Z,98320.16
2022-08-07T12:50:38.697Z,98314.53
2022-08-07T12:53:21.903Z,98321.09
2022-08-07T12:56:03.533Z,98312.19
2022-08-07T12:58:39.460Z,98308.34
2022-08-07T13:01:19.633Z,98312.44
2022-08-07T13:04:05.153Z,98298.69
2022-08-07T13:07:03.043Z,98304.03
2022-08-07T13:10:28.464Z,98297.78
2022-08-07T13:13:10.925Z,98289.72
2022-08-07T13:15:51.947Z,98296.19
2022-08-07T13:18:30.096Z,98281.66
2022-08-07T13:21:07.366Z,98278.78
2022-08-07T13:24:03.739Z,98277.38
2022-08-07T13:26:35.890Z,98277.47
2022-08-07T13:29:11.058Z,98285.91
2022-08-07T13:31:57.671Z,98276.13
2022-08-07T13:34:38.186Z,98279.59
2022-08-07T13:37:20.761Z,98264.75
2022-08-07T13:40:34.885Z,98265.56
2022-08-07T13:42:50.488Z,98273.25
2022-08-07T13:46:10.833Z,98270.22
2022-08-07T13:48:27.477Z,98286.69
2022-08-07T13:51:01.976Z,98318.34
2022-08-07T13:53:55.327Z,98321.88
2022-08-07T13:56:36.238Z,98314.16
2022-08-07T13:59:13.201Z,98325.88
2022-08-07T14:01:51.186Z,98341.78
2022-08-07T14:04:35.741Z,98382.03
2022-08-07T14:07:09.482Z,98394.69
2022-08-07T14:10:14.925Z,98390.22
2022-08-07T14:12:36.299Z,98408.06
2022-08-07T14:15:18.829Z,98427.00
2022-08-07T14:18:24.513Z,98425.56
2022-08-07T14:20:54.289Z,98421.69
2022-08-07T14:24:00.170Z,98417.72
2022-08-07T14:26:30.090Z,98408.47
2022-08-07T14:29:10.369Z,98399.22
2022-08-07T14:31:57.895Z,98400.13
2022-08-07T14:34:30.366Z,98395.00
2022-08-07T14:37:03.235Z,98395.38
2022-08-07T14:40:18.278Z,98392.53
2022-08-07T14:42:25.070Z,98401.88
2022-08-07T14:44:59.821Z,98400.53
2022-08-07T14:47:33.743Z,98397.13
2022-08-07T14:50:05.396Z,98407.69
2022-08-07T14:52:35.549Z,98402.91
2022-08-07T14:55:03.860Z,98393.84
2022-08-07T14:57:58.386Z,98389.91
2022-08-07T15:00:30.484Z,98390.13
2022-08-07T15:05:54.684Z,98384.31
2022-08-07T15:08:50.417Z,98391.00
2022-08-07T15:11:53.999Z,98393.75
2022-08-07T15:14:17.044Z,98390.00
2022-08-07T15:16:55.086Z,98381.53
2022-08-07T15:20:30.321Z,98380.03
2022-08-07T15:22:23.230Z,98385.63
2022-08-07T15:28:30.673Z,98378.00
2022-08-07T15:30:59.545Z,98377.56
2022-08-07T15:37:02.430Z,98376.91
2022-08-07T15:39:12.596Z,98371.06
2022-08-07T15:48:01.133Z,98373.91
2022-08-07T15:50:37.508Z,98374.41
2022-08-07T15:53:24.341Z,98374.06
2022-08-07T15:56:13.219Z,98376.66
2022-08-07T15:58:52.386Z,98376.38
2022-08-07T16:01:23.840Z,98382.63
2022-08-07T16:04:14.913Z,98377.41
2022-08-07T16:06:50.103Z,98379.38
2022-08-07T16:09:23.222Z,98385.28
2022-08-07T16:12:05.646Z,98389.34
2022-08-07T16:15:06.877Z,98387.69
2022-08-07T16:18:02.107Z,98383.34
2022-08-07T16:22:02.144Z,98381.34
2022-08-07T16:23:59.480Z,98374.88
2022-08-07T16:26:58.901Z,98382.31
2022-08-07T16:30:11.484Z,98379.09
2022-08-07T16:32:35.949Z,98386.56
2022-08-07T16:35:50.618Z,98382.06
2022-08-07T16:38:18.521Z,98387.56
2022-08-07T16:41:24.102Z,98387.28
2022-08-07T16:44:08.618Z,98386.38
2022-08-07T16:47:27.383Z,98388.59
2022-08-07T16:50:35.962Z,98384.91
2022-08-07T16:53:48.204Z,98393.63
2022-08-07T16:56:17.819Z,98395.53
2022-08-07T16:59:14.221Z,98389.03
2022-08-07T17:01:55.670Z,98385.47
2022-08-07T17:04:34.939Z,98389.34
2022-08-07T17:07:18.655Z,98385.69
2022-08-07T17:10:32.249Z,98385.53
2022-08-07T17:13:24.745Z,98389.72
2022-08-07T17:16:17.329Z,98390.06
2022-08-07T17:18:55.194Z,98385.59
2022-08-07T17:21:28.852Z,98401.09
2022-08-07T17:24:31.745Z,98412.22
2022-08-07T17:27:04.093Z,98411.19
2022-08-07T17:30:15.858Z,98413.50
2022-08-07T17:32:56.112Z,98415.34
2022-08-07T17:35:50.090Z,98421.22
2022-08-07T17:38:33.574Z,98434.69
2022-08-07T17:42:00.849Z,98425.38
2022-08-07T17:44:02.198Z,98440.06
2022-08-07T17:46:38.003Z,98443.13
2022-08-07T17:49:22.891Z,98448.53
2022-08-07T17:52:00.472Z,98448.81
2022-08-07T17:54:54.136Z,98461.13
2022-08-07T17:57:56.149Z,98463.13
2022-08-07T18:00:33.678Z,98467.31
2022-08-07T18:03:18.726Z,98475.16
2022-08-07T18:06:01.716Z,98483.56
2022-08-07T18:08:34.230Z,98477.34
2022-08-07T18:12:17.546Z,98491.56
2022-08-07T18:14:04.833Z,98503.16
2022-08-07T18:16:36.334Z,98510.38
2022-08-07T18:21:11.698Z,98514.78
2022-08-07T18:22:30.595Z,98508.88
2022-08-07T18:25:19.457Z,98520.28
2022-08-07T18:28:35.372Z,98524.59
2022-08-07T18:31:07.638Z,98528.53
2022-08-07T18:34:06.589Z,98531.66
2022-08-07T18:37:09.319Z,98532.06
2022-08-07T18:40:05.575Z,98536.34
2022-08-07T18:42:47.058Z,98542.78
2022-08-07T18:45:44.819Z,98541.03
2022-08-07T18:50:04.674Z,98548.25
2022-08-07T18:51:08.761Z,98547.06
2022-08-07T18:53:55.759Z,98547.19
2022-08-07T18:56:34.580Z,98558.84
2022-08-07T18:59:47.960Z,98564.69
2022-08-07T19:02:31.729Z,98566.94
2022-08-07T19:05:09.991Z,98570.72
2022-08-07T19:07:51.857Z,98565.56
2022-08-07T19:10:31.877Z,98567.78
2022-08-07T19:13:24.186Z,98556.41
2022-08-07T19:16:04.527Z,98569.63
2022-08-07T19:18:51.836Z,98565.06
2022-08-07T19:21:51.320Z,98570.38
2022-08-07T19:24:30.630Z,98574.72
2022-08-07T19:28:28.405Z,98567.22
2022-08-07T19:31:02.943Z,98575.84
2022-08-07T19:32:46.366Z,98570.25
2022-08-07T19:35:18.073Z,98572.66
2022-08-07T19:37:56.759Z,98568.47
2022-08-07T19:40:30.899Z,98573.22
2022-08-07T19:43:02.384Z,98569.63
2022-08-07T19:46:07.837Z,98578.03
2022-08-07T19:48:25.819Z,98584.91
2022-08-07T19:50:54.617Z,98584.44
2022-08-07T19:54:33.107Z,98594.22
2022-08-07T19:56:58.768Z,98588.34
2022-08-07T19:59:07.010Z,98590.03
2022-08-07T20:01:56.104Z,98589.59
2022-08-07T20:04:30.893Z,98593.16
2022-08-07T20:06:59.968Z,98588.81
2022-08-07T20:10:33.948Z,98587.59
2022-08-07T20:12:32.289Z,98588.94
2022-08-07T20:15:04.728Z,98586.88
2022-08-07T20:17:40.537Z,98586.34
2022-08-07T20:20:12.039Z,98586.94
2022-08-07T20:22:46.225Z,98587.97
2022-08-07T20:25:19.796Z,98596.38
2022-08-07T20:27:54.303Z,98590.66
2022-08-07T20:30:30.863Z,98589.41
2022-08-07T20:33:01.308Z,98601.97
2022-08-07T20:35:51.749Z,98602.81
2022-08-07T20:38:21.598Z,98603.91
2022-08-07T20:40:52.935Z,98600.56
2022-08-07T20:43:25.925Z,98597.25
2022-08-07T20:46:26.612Z,98600.47
2022-08-07T20:49:54.367Z,98595.34
2022-08-07T20:51:40.291Z,98598.53
2022-08-07T20:54:15.342Z,98598.31
2022-08-07T20:56:59.776Z,98600.19
2022-08-07T21:00:07.906Z,98588.72
2022-08-07T21:02:41.151Z,98598.19
2022-08-07T21:05:52.858Z,98593.81
2022-08-07T21:08:16.593Z,98609.25
2022-08-07T21:10:49.724Z,98609.25
2022-08-07T21:13:19.316Z,98612.94
2022-08-07T21:16:00.344Z,98610.31
2022-08-07T21:18:35.410Z,98611.34
2022-08-07T21:21:10.304Z,98629.44
2022-08-07T21:23:50.480Z,98625.25
2022-08-07T21:26:26.152Z,98631.78
2022-08-07T21:29:00.570Z,98642.25
2022-08-07T21:31:49.523Z,98638.34
2022-08-07T21:34:32.573Z,98673.63
2022-08-07T21:37:06.363Z,98657.75
2022-08-07T21:39:51.809Z,98658.03
2022-08-07T21:42:42.991Z,98678.94
2022-08-07T21:46:08.986Z,98659.38
2022-08-07T21:48:28.990Z,98652.88
2022-08-07T21:51:19.561Z,98656.28
2022-08-07T21:54:01.151Z,98655.28
2022-08-07T21:56:47.059Z,98661.25
2022-08-07T21:59:30.468Z,98660.25
2022-08-07T22:02:11.109Z,98657.44
2022-08-07T22:04:51.285Z,98659.81
2022-08-07T22:07:31.611Z,98667.16
2022-08-07T22:10:18.932Z,98664.84
2022-08-07T22:12:52.797Z,98664.09
2022-08-07T22:16:38.798Z,98662.78
2022-08-07T22:18:21.866Z,98677.13
2022-08-07T22:20:52.785Z,98667.50
2022-08-07T22:23:24.454Z,98673.75
2022-08-07T22:26:02.057Z,98669.84
2022-08-07T22:28:39.777Z,98671.47
2022-08-07T22:31:45.666Z,98665.22
2022-08-07T22:34:12.834Z,98672.47
2022-08-07T22:36:47.657Z,98674.34
2022-08-07T22:39:30.329Z,98684.53
2022-08-07T22:42:25.930Z,98687.44
2022-08-07T22:45:11.057Z,98685.91
2022-08-07T22:48:13.612Z,98685.91
2022-08-07T22:51:23.776Z,98678.09
2022-08-07T22:54:06.408Z,98689.81
2022-08-07T22:56:47.754Z,98690.84
2022-08-07T22:59:51.297Z,98684.31
2022-08-07T23:02:31.126Z,98689.53
2022-08-07T23:06:15.662Z,98691.34
2022-08-07T23:08:34.301Z,98680.69
2022-08-07T23:11:18.152Z,98685.63
2022-08-07T23:14:15.520Z,98691.09
2022-08-07T23:17:01.894Z,98686.66
2022-08-07T23:19:59.986Z,98687.94
2022-08-07T23:22:43.778Z,98689.25
2022-08-07T23:25:28.702Z,98687.72
2022-08-07T23:28:22.529Z,98691.34
2022-08-07T23:31:11.961Z,98691.59
2022-08-07T23:34:19.921Z,98697.59
2022-08-07T23:37:20.472Z,98684.56
2022-08-07T23:40:07.378Z,98696.56
2022-08-07T23:42:48.514Z,98706.97
2022-08-07T23:45:33.513Z,98694.47
2022-08-07T23:48:44.626Z,98688.50
2022-08-07T23:52:58.420Z,98687.44
2022-08-07T23:54:36.167Z,98686.66
2022-08-07T23:57:18.602Z,98690.78
